createdAt,value
2023-04-08T00:03:16.234Z,0
2023-04-08T00:08:16.002Z,0
2023-04-08T00:13:57.449Z,0
2023-04-08T00:19:16.015Z,0
2023-04-08T00:24:16.004Z,0
2023-04-08T00:29:57.481Z,0
2023-04-08T00:34:57.529Z,0
2023-04-08T00:40:16.027Z,0
2023-04-08T00:45:57.557Z,0
2023-04-08T00:50:57.491Z,0
2023-04-08T00:56:13.565Z,0
2023-04-08T01:01:16.016Z,0
2023-04-08T01:06:15.994Z,0
2023-04-08T01:11:16.028Z,0
2023-04-08T01:16:57.444Z,0
2023-04-08T01:21:57.461Z,0
2023-04-08T01:27:16.004Z,0
2023-04-08T01:32:57.561Z,0
2023-04-08T01:38:15.989Z,0
2023-04-08T01:43:57.566Z,0
2023-04-08T01:49:16.040Z,0
2023-04-08T01:54:57.514Z,0
2023-04-08T02:00:16.005Z,0
2023-04-08T02:05:16.019Z,0
2023-04-08T02:10:57.467Z,0
2023-04-08T02:16:16.117Z,0
2023-04-08T02:21:57.488Z,0
2023-04-08T02:27:16.002Z,0
2023-04-08T02:32:16.011Z,0
2023-04-08T02:37:57.479Z,0
2023-04-08T02:42:57.568Z,0
2023-04-08T02:48:16.030Z,0
2023-04-08T02:53:16.043Z,0
2023-04-08T02:58:16.049Z,0
2023-04-08T03:03:57.488Z,0
2023-04-08T03:08:57.452Z,0
2023-04-08T03:13:57.482Z,0
2023-04-08T03:18:57.517Z,0
2023-04-08T03:24:16.016Z,0
2023-04-08T03:29:57.467Z,0
2023-04-08T03:34:57.497Z,0
2023-04-08T03:40:16.021Z,0
2023-04-08T03:45:57.534Z,0
2023-04-08T03:51:15.999Z,0
2023-04-08T03:56:16.031Z,0
2023-04-08T04:01:57.543Z,0
2023-04-08T04:06:57.480Z,0
2023-04-08T04:11:57.496Z,0
2023-04-08T04:17:16.004Z,0
2023-04-08T04:22:16.048Z,0
2023-04-08T04:27:57.490Z,0
2023-04-08T04:32:57.635Z,0
2023-04-08T04:38:16.026Z,0
2023-04-08T04:43:57.484Z,0
2023-04-08T04:49:16.008Z,0
2023-04-08T04:54:57.497Z,0
2023-04-08T05:00:16.020Z,0
2023-04-08T05:05:57.488Z,0
2023-04-08T05:10:57.498Z,0
2023-04-08T05:16:16.033Z,0
2023-04-08T05:21:16.014Z,0
2023-04-08T05:27:07.575Z,0
2023-04-08T05:32:16.033Z,0
2023-04-08T05:37:57.522Z,0
2023-04-08T05:43:16.027Z,0
2023-04-08T05:48:16.058Z,0
2023-04-08T05:53:57.521Z,0
2023-04-08T05:59:16.014Z,0
2023-04-08T06:04:16.137Z,0
2023-04-08T06:09:57.475Z,0
2023-04-08T06:14:57.473Z,0
2023-04-08T06:19:57.484Z,0
2023-04-08T06:24:57.487Z,0
2023-04-08T06:30:16.031Z,0
2023-04-08T06:35:57.595Z,0
2023-04-08T06:41:16.029Z,0
2023-04-08T06:46:57.492Z,0
2023-04-08T06:52:16.028Z,0
2023-04-08T06:57:16.023Z,0
2023-04-08T07:02:57.534Z,0
2023-04-08T07:08:16.012Z,0
2023-04-08T07:13:16.025Z,0
2023-04-08T07:18:57.488Z,0
2023-04-08T07:23:57.517Z,0
2023-04-08T07:28:57.553Z,0
2023-04-08T07:34:16.026Z,0
2023-04-08T07:39:16.038Z,0
2023-04-08T07:44:57.480Z,0
2023-04-08T07:49:57.482Z,0
2023-04-08T07:54:57.515Z,0
2023-04-08T08:00:16.028Z,0
2023-04-08T08:05:16.138Z,0
2023-04-08T08:10:57.537Z,0
2023-04-08T08:15:57.542Z,0
2023-04-08T08:21:16.065Z,0
2023-04-08T08:26:57.489Z,0
2023-04-08T08:31:57.502Z,0
2023-04-08T08:37:09.049Z,0
2023-04-08T08:42:16.028Z,0
2023-04-08T08:47:57.550Z,0
2023-04-08T08:52:57.505Z,0
2023-04-08T08:58:16.043Z,0
2023-04-08T09:03:57.652Z,0
2023-04-08T09:08:57.541Z,0
2023-04-08T09:14:16.033Z,0
2023-04-08T09:19:16.092Z,0
2023-04-08T09:24:57.490Z,0
2023-04-08T09:29:57.513Z,0
2023-04-08T09:34:57.525Z,0
2023-04-08T09:39:57.537Z,0
2023-04-08T09:45:16.032Z,0
2023-04-08T09:50:16.027Z,0
2023-04-08T09:55:16.057Z,0
2023-04-08T10:00:16.076Z,0
2023-04-08T10:05:57.520Z,0
2023-04-08T10:11:16.039Z,0
2023-04-08T10:16:57.539Z,0
2023-04-08T10:22:16.047Z,0
2023-04-08T10:27:16.102Z,0
2023-04-08T10:32:57.568Z,0
2023-04-08T10:38:16.080Z,0.4
2023-04-08T10:43:16.131Z,0
2023-04-08T10:48:57.526Z,0.1
2023-04-08T10:54:16.045Z,0.3
2023-04-08T10:59:16.073Z,0.4
2023-04-08T11:04:57.530Z,0.7
2023-04-08T11:10:16.053Z,1.1
2023-04-08T11:15:57.658Z,1.5
2023-04-08T11:21:16.043Z,1.7
2023-04-08T11:26:34.596Z,1.5
2023-04-08T11:31:57.559Z,1.2
2023-04-08T11:36:57.583Z,1
2023-04-08T11:42:16.030Z,1.2
2023-04-08T11:47:16.043Z,1.4
2023-04-08T11:52:16.056Z,1.4
2023-04-08T11:57:57.596Z,1.4
2023-04-08T12:03:16.086Z,1.4
2023-04-08T12:08:32.068Z,1.2
2023-04-08T12:13:57.595Z,1.4
2023-04-08T12:19:16.082Z,2
2023-04-08T12:24:59.218Z,1.6
2023-04-08T12:30:16.652Z,2.8
2023-04-08T12:35:16.091Z,5
2023-04-08T12:40:57.515Z,5.4
2023-04-08T12:45:57.573Z,6.3
2023-04-08T12:51:16.060Z,6.1
2023-04-08T12:56:57.519Z,7.1
2023-04-08T13:01:57.608Z,6.5
2023-04-08T13:07:16.074Z,6.9
2023-04-08T13:12:16.131Z,8.1
2023-04-08T13:17:16.089Z,7.3
2023-04-08T13:22:57.570Z,8.2
2023-04-08T13:28:16.082Z,8.1
2023-04-08T13:33:58.404Z,8
2023-04-08T13:39:16.071Z,8.1
2023-04-08T13:44:57.591Z,8.3
2023-04-08T13:50:16.088Z,7.8
2023-04-08T13:55:16.261Z,7.5
2023-04-08T14:00:57.568Z,7
2023-04-08T14:05:59.184Z,7.1
2023-04-08T14:11:16.084Z,7.1
2023-04-08T14:16:57.578Z,7.1
2023-04-08T14:21:57.595Z,7.3
2023-04-08T14:26:57.589Z,7.5
2023-04-08T14:32:16.059Z,7.3
2023-04-08T14:37:16.098Z,6.5
2023-04-08T14:42:16.111Z,6.7
2023-04-08T14:47:57.647Z,7.5
2023-04-08T14:53:16.058Z,8.4
2023-04-08T14:58:16.084Z,8.6
2023-04-08T15:03:57.640Z,8.4
2023-04-08T15:08:57.582Z,8.3
2023-04-08T15:14:16.108Z,8.6
2023-04-08T15:19:57.533Z,9
2023-04-08T15:24:57.582Z,8.6
2023-04-08T15:29:57.609Z,9
2023-04-08T15:35:16.087Z,8.2
2023-04-08T15:40:16.082Z,8.5
2023-04-08T15:45:57.581Z,8.2
2023-04-08T15:50:57.661Z,8.2
2023-04-08T15:56:16.507Z,7.4
2023-04-08T16:01:16.099Z,7.1
2023-04-08T16:06:16.091Z,7.2
2023-04-08T16:11:57.574Z,7.1
2023-04-08T16:16:57.710Z,6.9
2023-04-08T16:22:16.096Z,6.5
2023-04-08T16:27:57.843Z,6.5
2023-04-08T16:32:57.611Z,6.2
2023-04-08T16:38:16.126Z,6.2
2023-04-08T16:43:57.612Z,6.6
2023-04-08T16:49:18.125Z,6.5
2023-04-08T16:54:16.145Z,6.3
2023-04-08T16:59:57.760Z,5.9
2023-04-08T17:05:16.139Z,5.3
2023-04-08T17:10:57.551Z,4.8
2023-04-08T17:15:57.584Z,4.6
2023-04-08T17:21:16.109Z,4.3
2023-04-08T17:26:16.115Z,3.7
2023-04-08T17:31:57.614Z,3.5
2023-04-08T17:36:57.620Z,3
2023-04-08T17:42:16.110Z,3
2023-04-08T17:47:16.131Z,2.4
2023-04-08T17:52:57.591Z,2.4
2023-04-08T17:58:16.130Z,2.3
2023-04-08T18:03:57.742Z,2.3
2023-04-08T18:09:16.110Z,2
2023-04-08T18:19:57.587Z,1.9
2023-04-08T18:24:57.598Z,1.7
2023-04-08T18:30:16.108Z,1.2
2023-04-08T18:35:59.519Z,0.8
2023-04-08T18:40:57.591Z,0.7
2023-04-08T18:45:57.678Z,0.8
2023-04-08T18:51:16.094Z,0.8
2023-04-08T18:56:16.129Z,0.7
2023-04-08T19:01:16.254Z,0.3
2023-04-08T19:06:16.136Z,0.2
2023-04-08T19:11:16.143Z,0
2023-04-08T19:16:57.581Z,0
2023-04-08T19:21:57.577Z,0
2023-04-08T19:26:57.611Z,0
2023-04-08T19:32:16.123Z,0
2023-04-08T19:37:57.603Z,0
2023-04-08T19:43:16.107Z,0
2023-04-08T19:48:16.108Z,0
2023-04-08T19:53:57.584Z,0
2023-04-08T19:59:16.113Z,0
2023-04-08T20:04:16.281Z,0
2023-04-08T20:09:57.599Z,0
2023-04-08T20:15:24.278Z,0
2023-04-08T20:20:16.131Z,0
2023-04-08T20:25:16.209Z,0
2023-04-08T20:30:57.617Z,0
2023-04-08T20:36:16.112Z,0
2023-04-08T20:41:16.138Z,0
2023-04-08T20:46:57.649Z,0
2023-04-08T20:52:16.095Z,0
2023-04-08T20:57:16.127Z,0
2023-04-08T21:02:57.693Z,0
2023-04-08T21:08:16.116Z,0
2023-04-08T21:13:16.163Z,0
2023-04-08T21:18:57.626Z,0
2023-04-08T21:23:57.637Z,0
2023-04-08T21:29:16.142Z,0
2023-04-08T21:34:57.604Z,0
2023-04-08T21:39:57.598Z,0
2023-04-08T21:44:57.607Z,0
2023-04-08T21:50:07.602Z,0
2023-04-08T21:55:16.114Z,0
2023-04-08T22:00:16.128Z,0
2023-04-08T22:05:57.576Z,0
2023-04-08T22:10:57.584Z,0
2023-04-08T22:15:57.607Z,0
2023-04-08T22:20:57.613Z,0
2023-04-08T22:26:16.161Z,0
2023-04-08T22:31:57.611Z,0
2023-04-08T22:36:57.627Z,0
2023-04-08T22:42:16.139Z,0
2023-04-08T22:47:16.166Z,0
2023-04-08T22:52:57.600Z,0
2023-04-08T22:57:57.623Z,0
2023-04-08T23:02:57.933Z,0
2023-04-08T23:08:16.156Z,0
2023-04-08T23:13:57.615Z,0
2023-04-08T23:19:16.079Z,0
2023-04-08T23:24:16.117Z,0
2023-04-08T23:29:16.114Z,0
2023-04-08T23:34:57.562Z,0
2023-04-08T23:39:57.619Z,0
2023-04-08T23:45:16.160Z,0
2023-04-08T23:50:19.513Z,0
2023-04-08T23:55:57.597Z,0
